Newport, Indiana
Current Conditions -  °F | °C
As of 8:35 PM on Monday 20 Oct 2014 (Local Time) from KPRG Reporting Station
Broken Clouds Broken Clouds  
Wind Chill: 56°   Ceiling: 6000
Heat Index: 56°   Visibility: 10mi
Dew Point: 47°   Wind: 5mph
Humidity: 72%   Direction: 300°WNW
Pressure: 29.96"   Gusts: NA
Location:  39.88°N, 87.41°W
Report Text: KPRG 210035Z AUTO 30004KT 10SM BKN060 14/09 A2996 RMK AO2 LTG DSNT E T01350085
Loading
Personal Weather Stations






























Interactive Weather Map New forecast layout! Learn more

10-Day Weather Forecast

Advertisements
Track Severe Weather on mobile